createdAt,value
2019-06-01T00:02:22.621Z,8.93
2019-06-01T00:07:27.529Z,8.60
2019-06-01T00:12:43.502Z,9.03
2019-06-01T00:17:48.325Z,10.00
2019-06-01T00:22:54.075Z,9.45
2019-06-01T00:27:58.964Z,9.35
2019-06-01T00:33:04.909Z,8.67
2019-06-01T00:38:09.679Z,8.87
2019-06-01T00:43:14.639Z,8.70
2019-06-01T00:48:20.031Z,9.70
2019-06-01T00:53:31.199Z,8.90
2019-06-01T00:58:45.713Z,9.30
2019-06-01T01:03:50.637Z,8.53
2019-06-01T01:08:55.655Z,8.43
2019-06-01T01:14:01.631Z,9.58
2019-06-01T01:19:06.558Z,8.93
2019-06-01T01:24:12.119Z,8.83
2019-06-01T01:29:16.907Z,8.68
2019-06-01T01:34:22.367Z,8.60
2019-06-01T01:39:27.083Z,8.48
2019-06-01T01:44:31.958Z,9.08
2019-06-01T01:49:49.940Z,8.40
2019-06-01T01:55:00.951Z,8.25
2019-06-01T02:00:08.900Z,8.35
2019-06-01T02:05:14.038Z,8.20
2019-06-01T02:10:19.176Z,8.60
2019-06-01T02:15:24.124Z,8.55
2019-06-01T02:20:29.035Z,8.10
2019-06-01T02:25:34.161Z,8.00
2019-06-01T02:30:39.082Z,8.40
2019-06-01T02:35:43.935Z,8.63
2019-06-01T02:40:48.764Z,8.25
2019-06-01T02:45:53.762Z,8.38
2019-06-01T02:50:59.884Z,9.00
2019-06-01T02:56:17.772Z,8.15
2019-06-01T03:01:35.397Z,7.97
2019-06-01T03:06:43.555Z,8.65
2019-06-01T03:11:50.237Z,9.10
2019-06-01T03:16:59.829Z,9.53
2019-06-01T03:22:07.251Z,8.45
2019-06-01T03:27:15.713Z,8.95
2019-06-01T03:32:36.023Z,9.43
2019-06-01T03:37:31.927Z,9.30
2019-06-01T03:42:36.909Z,9.75
2019-06-01T03:47:42.154Z,9.90
2019-06-01T03:52:47.088Z,9.80
2019-06-01T03:57:52.055Z,9.73
2019-06-01T04:02:56.888Z,9.63
2019-06-01T04:08:01.713Z,10.32
2019-06-01T04:13:09.616Z,10.45
2019-06-01T04:18:14.486Z,11.28
2019-06-01T04:23:19.518Z,11.10
2019-06-01T04:28:25.291Z,10.90
2019-06-01T04:33:36.194Z,11.45
2019-06-01T04:38:41.068Z,11.48
2019-06-01T04:43:46.426Z,12.30
2019-06-01T04:48:51.305Z,11.88
2019-06-01T04:53:56.564Z,11.85
2019-06-01T04:59:01.589Z,11.97
2019-06-01T05:04:07.088Z,12.85
2019-06-01T05:09:13.285Z,12.93
2019-06-01T05:14:18.300Z,13.55
2019-06-01T05:19:23.073Z,13.85
2019-06-01T05:24:28.048Z,14.13
2019-06-01T05:29:32.896Z,13.80
2019-06-01T05:34:37.682Z,12.85
2019-06-01T05:39:43.258Z,14.58
2019-06-01T05:44:48.157Z,14.95
2019-06-01T05:49:52.902Z,14.85
2019-06-01T05:55:04.079Z,15.05
2019-06-01T06:00:11.032Z,15.13
2019-06-01T06:05:16.655Z,14.30
2019-06-01T06:10:22.180Z,15.97
2019-06-01T06:15:27.040Z,15.63
2019-06-01T06:20:31.784Z,15.38
2019-06-01T06:25:39.648Z,15.93
2019-06-01T06:30:49.061Z,16.82
2019-06-01T06:35:53.945Z,15.18
2019-06-01T06:41:05.848Z,15.60
2019-06-01T06:46:11.783Z,16.73
2019-06-01T06:51:17.251Z,15.95
2019-06-01T06:56:22.172Z,16.40
2019-06-01T07:01:27.120Z,15.80
2019-06-01T07:06:32.073Z,13.68
2019-06-01T07:11:37.182Z,14.78
2019-06-01T07:16:42.022Z,14.87
2019-06-01T07:21:47.331Z,14.35
2019-06-01T07:26:52.331Z,13.75
2019-06-01T07:31:57.114Z,12.95
2019-06-01T07:37:02.728Z,13.38
2019-06-01T07:42:07.783Z,12.88
2019-06-01T07:47:12.595Z,11.23
2019-06-01T07:52:18.113Z,10.85
2019-06-01T07:57:27.783Z,9.88
2019-06-01T08:02:33.118Z,9.38
2019-06-01T08:07:38.312Z,8.95
2019-06-01T08:12:43.113Z,8.25
2019-06-01T08:18:00.002Z,8.98
2019-06-01T08:23:05.869Z,7.20
2019-06-01T08:28:10.929Z,7.53
2019-06-01T08:33:15.885Z,7.85
2019-06-01T08:38:21.097Z,7.10
2019-06-01T08:43:25.954Z,7.62
2019-06-01T08:48:31.860Z,6.55
2019-06-01T08:53:37.077Z,7.28
2019-06-01T08:58:48.023Z,7.08
2019-06-01T09:03:53.153Z,5.80
2019-06-01T09:09:06.801Z,6.75
2019-06-01T09:14:11.564Z,6.60
2019-06-01T09:19:16.466Z,5.95
2019-06-01T09:24:21.416Z,6.50
2019-06-01T09:29:26.184Z,6.75
2019-06-01T09:34:32.154Z,5.37
2019-06-01T09:39:37.439Z,7.40
2019-06-01T09:44:42.816Z,7.60
2019-06-01T09:49:47.846Z,8.07
2019-06-01T09:54:55.946Z,7.28
2019-06-01T10:00:01.573Z,6.35
2019-06-01T10:05:06.884Z,6.00
2019-06-01T10:10:13.319Z,5.80
2019-06-01T10:15:18.287Z,6.23
2019-06-01T10:20:41.500Z,5.17
2019-06-01T10:25:46.644Z,5.35
2019-06-01T10:30:51.719Z,7.37
2019-06-01T10:35:56.701Z,7.12
2019-06-01T10:41:01.719Z,6.15
2019-06-01T10:46:12.307Z,6.25
2019-06-01T10:51:17.964Z,5.47
2019-06-01T10:56:26.155Z,5.40
2019-06-01T11:01:33.826Z,4.65
2019-06-01T11:06:51.476Z,5.80
2019-06-01T11:11:56.480Z,5.47
2019-06-01T11:17:02.206Z,5.17
2019-06-01T11:22:07.223Z,5.15
2019-06-01T11:27:15.033Z,5.37
2019-06-01T11:32:20.050Z,5.53
2019-06-01T11:37:24.967Z,5.97
2019-06-01T11:42:30.077Z,5.65
2019-06-01T11:47:35.028Z,5.95
2019-06-01T11:52:41.068Z,4.55
2019-06-01T11:57:53.187Z,5.47
2019-06-01T12:03:04.506Z,3.95
2019-06-01T12:08:09.607Z,4.97
2019-06-01T12:13:18.986Z,4.67
2019-06-01T12:18:23.932Z,4.33
2019-06-01T12:23:28.889Z,4.70
2019-06-01T12:28:33.930Z,4.57
2019-06-01T12:33:46.261Z,5.10
2019-06-01T12:39:00.286Z,4.15
2019-06-01T12:44:30.400Z,4.58
2019-06-01T12:49:35.812Z,4.55
2019-06-01T12:54:40.773Z,3.92
2019-06-01T12:59:47.105Z,3.55
2019-06-01T13:04:53.115Z,3.67
2019-06-01T13:10:01.777Z,3.12
2019-06-01T13:15:09.099Z,4.03
2019-06-01T13:20:21.578Z,3.27
2019-06-01T13:25:26.607Z,3.70
2019-06-01T13:30:31.571Z,3.27
2019-06-01T13:35:36.583Z,3.90
2019-06-01T13:40:41.381Z,3.42
2019-06-01T13:45:47.231Z,3.58
2019-06-01T13:50:52.110Z,3.72
2019-06-01T13:55:57.113Z,3.52
2019-06-01T14:01:02.113Z,3.50
2019-06-01T14:06:06.890Z,3.50
2019-06-01T14:11:11.788Z,4.30
2019-06-01T14:16:18.834Z,3.93
2019-06-01T14:21:31.644Z,3.67
2019-06-01T14:26:42.859Z,3.75
2019-06-01T14:31:48.496Z,3.20
2019-06-01T14:36:54.623Z,3.35
2019-06-01T14:41:59.533Z,3.45
2019-06-01T14:47:06.166Z,3.20
2019-06-01T14:52:11.083Z,2.90
2019-06-01T14:57:16.055Z,3.60
2019-06-01T15:02:21.147Z,3.07
2019-06-01T15:07:26.110Z,3.15
2019-06-01T15:12:33.161Z,3.02
2019-06-01T15:17:38.260Z,2.92
2019-06-01T15:22:50.032Z,2.90
2019-06-01T15:27:56.884Z,2.98
2019-06-01T15:33:03.268Z,3.25
2019-06-01T15:38:08.343Z,2.87
2019-06-01T15:43:13.354Z,2.25
2019-06-01T15:48:18.410Z,3.08
2019-06-01T15:53:23.462Z,3.08
2019-06-01T15:58:28.519Z,2.83
2019-06-01T16:03:45.465Z,2.55
2019-06-01T16:08:55.251Z,2.90
2019-06-01T16:14:01.795Z,3.10
2019-06-01T16:19:08.053Z,2.70
2019-06-01T16:24:13.042Z,2.90
2019-06-01T16:29:18.223Z,2.87
2019-06-01T16:34:23.205Z,2.55
2019-06-01T16:39:28.153Z,2.75
2019-06-01T16:44:33.207Z,2.80
2019-06-01T16:49:38.191Z,2.58
2019-06-01T16:54:43.078Z,2.80
2019-06-01T16:59:47.969Z,2.65
2019-06-01T17:04:53.801Z,2.90
2019-06-01T17:10:23.942Z,2.52
2019-06-01T17:15:16.649Z,2.80
2019-06-01T17:20:57.273Z,2.57
2019-06-01T17:26:04.064Z,2.45
2019-06-01T17:31:09.074Z,2.95
2019-06-01T17:36:16.487Z,2.90
2019-06-01T17:41:21.372Z,3.00
2019-06-01T17:46:26.397Z,2.85
2019-06-01T17:51:32.014Z,2.67
2019-06-01T17:56:37.047Z,3.17
2019-06-01T18:01:42.785Z,2.87
2019-06-01T18:06:47.960Z,3.00
2019-06-01T18:11:52.926Z,3.52
2019-06-01T18:16:57.851Z,2.72
2019-06-01T18:22:02.913Z,3.63
2019-06-01T18:27:08.508Z,3.33
2019-06-01T18:32:13.875Z,3.37
2019-06-01T18:37:19.469Z,3.25
2019-06-01T18:42:31.107Z,3.33
2019-06-01T18:47:36.570Z,3.52
2019-06-01T18:52:41.532Z,3.37
2019-06-01T18:57:50.349Z,3.25
2019-06-01T19:02:55.938Z,3.20
2019-06-01T19:08:00.960Z,3.98
2019-06-01T19:13:06.058Z,3.80
2019-06-01T19:18:12.504Z,3.62
2019-06-01T19:23:23.712Z,3.45
2019-06-01T19:28:37.181Z,3.50
2019-06-01T19:33:43.261Z,4.00
2019-06-01T19:38:48.785Z,3.90
2019-06-01T19:43:54.591Z,3.65
2019-06-01T19:48:59.769Z,4.17
2019-06-01T19:54:04.720Z,4.00
2019-06-01T19:59:09.871Z,3.90
2019-06-01T20:04:14.898Z,4.33
2019-06-01T20:09:21.322Z,4.72
2019-06-01T20:14:26.221Z,4.75
2019-06-01T20:19:31.047Z,4.80
2019-06-01T20:24:35.809Z,4.90
2019-06-01T20:29:48.606Z,4.70
2019-06-01T20:34:53.575Z,5.45
2019-06-01T20:40:00.464Z,6.03
2019-06-01T20:45:06.515Z,7.03
2019-06-01T20:50:12.631Z,6.62
2019-06-01T20:55:19.143Z,6.22
2019-06-01T21:00:24.358Z,6.45
2019-06-01T21:05:29.134Z,6.97
2019-06-01T21:10:35.748Z,7.12
2019-06-01T21:15:40.738Z,7.83
2019-06-01T21:20:48.067Z,8.20
2019-06-01T21:25:58.158Z,9.13
2019-06-01T21:31:02.924Z,9.58
2019-06-01T21:36:07.665Z,10.35
2019-06-01T21:41:12.360Z,10.28
2019-06-01T21:46:17.593Z,9.85
2019-06-01T21:51:23.891Z,10.32
2019-06-01T21:56:29.052Z,10.93
2019-06-01T22:01:36.662Z,10.08
2019-06-01T22:06:48.553Z,8.30
2019-06-01T22:11:57.973Z,8.88
2019-06-01T22:17:02.860Z,8.75
2019-06-01T22:22:07.619Z,9.05
2019-06-01T22:27:12.716Z,8.75
2019-06-01T22:32:18.392Z,9.25
2019-06-01T22:37:24.114Z,8.63
2019-06-01T22:42:28.955Z,9.35
2019-06-01T22:47:33.880Z,9.48
2019-06-01T22:52:38.588Z,9.28
2019-06-01T22:57:43.567Z,9.85
2019-06-01T23:02:48.336Z,8.80
2019-06-01T23:07:53.389Z,9.53
2019-06-01T23:12:58.158Z,8.50
2019-06-01T23:18:18.361Z,8.63
2019-06-01T23:23:28.042Z,9.13
2019-06-01T23:28:33.371Z,8.83
2019-06-01T23:33:44.714Z,8.70
2019-06-01T23:38:49.570Z,8.65
2019-06-01T23:44:10.464Z,8.10
2019-06-01T23:49:00.962Z,8.30
2019-06-01T23:54:06.328Z,7.90
2019-06-01T23:59:11.242Z,8.88
